Time;durP1;ratioP1;P1;durP2;ratioP2;P2;SDS_P1;SDS_P2;PMS_P1;PMS_P2;Temp;Humidity;BMP_temperature;BMP_pressure;BME280_temperature;BME280_humidity;BME280_pressure;Samples;Min_cycle;Max_cycle;Signal;HPM_P1;HPM_P2
2023/08/08 00:01:19;;;;;;;5.23;1.70;;;13.80;29.50;;;;;;5007808;28;20856;-64
2023/08/08 00:03:46;;;;;;;4.27;1.77;;;13.80;29.60;;;;;;5004344;28;20467;-64
2023/08/08 00:06:12;;;;;;;4.63;2.03;;;13.80;29.70;;;;;;5008692;28;20486;-64
2023/08/08 00:08:39;;;;;;;4.57;1.80;;;13.80;29.80;;;;;;5002198;28;21028;-64
2023/08/08 00:11:07;;;;;;;4.60;1.77;;;13.80;30.10;;;;;;5004812;28;20460;-64
2023/08/08 00:13:34;;;;;;;4.67;1.80;;;13.80;30.00;;;;;;5005339;28;20460;-64
2023/08/08 00:16:00;;;;;;;4.83;2.00;;;13.80;30.00;;;;;;5005309;28;20472;-64
2023/08/08 00:18:27;;;;;;;3.93;1.67;;;13.70;30.20;;;;;;4993252;28;20503;-64
2023/08/08 00:20:54;;;;;;;4.07;1.40;;;13.70;30.20;;;;;;5007083;28;20460;-64
2023/08/08 00:23:20;;;;;;;3.63;1.40;;;13.70;30.30;;;;;;5006479;28;20501;-64
2023/08/08 00:25:49;;;;;;;4.73;1.90;;;13.70;30.70;;;;;;4999715;28;20487;-64
2023/08/08 00:28:18;;;;;;;5.63;2.10;;;13.70;30.60;;;;;;4995794;28;20501;-64
2023/08/08 00:30:44;;;;;;;4.10;1.50;;;13.60;30.60;;;;;;5001323;28;20468;-64
2023/08/08 00:33:11;;;;;;;4.47;2.13;;;13.60;30.70;;;;;;5000028;28;20464;-64
2023/08/08 00:35:38;;;;;;;4.50;1.63;;;13.60;31.00;;;;;;4994930;28;20453;-64
2023/08/08 00:38:05;;;;;;;3.67;1.37;;;13.60;31.00;;;;;;5008363;28;20479;-64
2023/08/08 00:40:31;;;;;;;20.23;2.63;;;13.50;31.10;;;;;;5006164;28;20464;-64
2023/08/08 00:42:58;;;;;;;3.87;1.43;;;13.50;31.10;;;;;;5002601;28;23505;-64
2023/08/08 00:45:26;;;;;;;6.67;2.30;;;13.50;31.20;;;;;;5006253;28;20502;-64
2023/08/08 00:47:54;;;;;;;4.77;1.70;;;13.50;31.30;;;;;;4995404;28;20480;-64
2023/08/08 00:50:21;;;;;;;3.87;1.73;;;13.50;31.30;;;;;;4997654;28;20457;-64
2023/08/08 00:52:49;;;;;;;5.20;2.03;;;13.50;31.50;;;;;;5005095;28;20467;-64
2023/08/08 00:55:16;;;;;;;4.07;1.70;;;13.50;31.40;;;;;;5005693;28;20480;-64
2023/08/08 00:57:43;;;;;;;7.10;1.87;;;13.50;31.60;;;;;;5005392;28;20498;-64
2023/08/08 01:00:10;;;;;;;4.43;1.33;;;13.50;31.60;;;;;;4998776;28;20471;-64
2023/08/08 01:02:38;;;;;;;4.60;1.90;;;13.40;31.60;;;;;;5005112;28;20484;-64
2023/08/08 01:05:07;;;;;;;4.70;1.60;;;13.40;31.80;;;;;;5006645;28;20482;-64
2023/08/08 01:07:39;;;;;;;5.30;1.80;;;13.30;31.80;;;;;;5000123;28;20702;-64
2023/08/08 01:10:09;;;;;;;6.00;1.70;;;13.40;31.90;;;;;;5002800;28;21212;-64
2023/08/08 01:12:40;;;;;;;5.30;2.17;;;13.40;32.00;;;;;;5004941;28;20730;-64
2023/08/08 01:15:08;;;;;;;4.07;1.53;;;13.40;32.00;;;;;;5006386;28;20794;-64
2023/08/08 01:17:36;;;;;;;5.60;1.63;;;13.40;31.90;;;;;;5004713;28;20476;-64
2023/08/08 01:20:07;;;;;;;4.47;1.67;;;13.40;31.90;;;;;;4997190;28;20463;-64
2023/08/08 01:22:39;;;;;;;5.23;2.10;;;13.40;31.90;;;;;;4995614;28;20461;-64
2023/08/08 01:25:09;;;;;;;4.77;1.80;;;13.40;32.00;;;;;;5002787;28;20468;-64
2023/08/08 01:27:36;;;;;;;4.70;1.50;;;13.50;32.10;;;;;;5000357;28;21008;-64
2023/08/08 01:30:03;;;;;;;5.03;1.90;;;13.50;32.00;;;;;;4998127;28;20466;-64
2023/08/08 01:32:30;;;;;;;5.00;1.30;;;13.60;32.00;;;;;;5009287;28;20486;-64
2023/08/08 01:34:57;;;;;;;5.00;1.73;;;13.60;31.80;;;;;;5005866;28;20447;-64
2023/08/08 01:37:29;;;;;;;4.73;2.20;;;13.50;31.90;;;;;;5010416;28;20494;-64
2023/08/08 01:39:59;;;;;;;8.67;1.80;;;13.60;32.00;;;;;;5006493;28;20476;-64
2023/08/08 01:42:27;;;;;;;3.93;1.53;;;13.60;31.90;;;;;;5000282;28;21017;-64
2023/08/08 01:44:55;;;;;;;4.37;1.40;;;13.60;31.80;;;;;;5008800;28;21279;-64
2023/08/08 01:47:22;;;;;;;4.23;2.03;;;13.60;31.70;;;;;;5006287;28;20483;-64
2023/08/08 01:49:48;;;;;;;4.07;1.80;;;13.60;31.70;;;;;;5010052;28;20463;-64
2023/08/08 01:52:15;;;;;;;4.33;1.67;;;13.60;31.80;;;;;;5009119;28;20460;-64
2023/08/08 01:54:42;;;;;;;4.83;1.80;;;13.60;31.70;;;;;;5013635;28;20474;-64
2023/08/08 01:57:09;;;;;;;4.37;1.50;;;13.60;31.70;;;;;;5001341;28;20476;-64
2023/08/08 01:59:37;;;;;;;5.80;2.07;;;13.60;31.60;;;;;;5008126;28;20456;-64
2023/08/08 02:02:04;;;;;;;4.13;1.83;;;13.60;31.50;;;;;;5002618;28;20464;-65
2023/08/08 02:04:31;;;;;;;4.10;1.80;;;13.60;31.40;;;;;;5010719;28;20463;-65
2023/08/08 02:06:58;;;;;;;5.13;1.80;;;13.60;31.30;;;;;;5001587;28;20506;-64
2023/08/08 02:09:24;;;;;;;4.10;2.27;;;13.60;31.30;;;;;;5007634;28;20468;-64
2023/08/08 02:11:51;;;;;;;4.30;1.40;;;13.60;31.40;;;;;;5004613;28;20467;-65
2023/08/08 02:14:18;;;;;;;4.10;1.57;;;13.70;31.40;;;;;;5007212;28;20988;-65
2023/08/08 02:16:46;;;;;;;5.10;1.70;;;13.70;31.40;;;;;;5006885;28;20467;-63
2023/08/08 02:19:12;;;;;;;4.50;1.80;;;13.70;31.30;;;;;;5009837;28;20456;-63
2023/08/08 02:21:39;;;;;;;3.73;1.63;;;13.70;31.30;;;;;;5011162;28;20467;-63
2023/08/08 02:24:06;;;;;;;4.17;1.70;;;13.60;31.20;;;;;;5012117;28;20483;-63
2023/08/08 02:26:32;;;;;;;4.33;1.70;;;13.60;31.20;;;;;;5004616;28;20484;-63
2023/08/08 02:28:59;;;;;;;6.33;1.90;;;13.60;31.20;;;;;;5004991;28;20486;-63
2023/08/08 02:31:26;;;;;;;4.07;1.60;;;13.60;31.10;;;;;;5001074;28;20479;-63
2023/08/08 02:33:54;;;;;;;4.90;1.93;;;13.70;31.00;;;;;;5002432;28;21013;-63
2023/08/08 02:36:21;;;;;;;5.27;1.63;;;13.70;31.00;;;;;;5004916;28;20525;-63
2023/08/08 02:38:49;;;;;;;4.70;1.50;;;13.70;30.90;;;;;;5005838;28;20495;-63
2023/08/08 02:41:16;;;;;;;4.00;1.60;;;13.70;30.90;;;;;;5002102;28;20953;-63
2023/08/08 02:43:42;;;;;;;5.30;1.70;;;13.70;30.80;;;;;;5003642;28;20461;-63
2023/08/08 02:46:09;;;;;;;4.07;1.50;;;13.70;30.90;;;;;;5004412;28;20471;-63
2023/08/08 02:48:36;;;;;;;4.43;1.70;;;13.70;30.90;;;;;;5004653;28;20985;-63
2023/08/08 02:51:04;;;;;;;4.57;1.73;;;13.70;30.90;;;;;;5008846;28;20500;-63
2023/08/08 02:53:30;;;;;;;4.20;1.53;;;13.70;30.90;;;;;;5009295;28;20467;-63
2023/08/08 02:55:57;;;;;;;4.17;1.67;;;13.70;30.80;;;;;;5005323;28;20467;-63
2023/08/08 02:58:24;;;;;;;4.70;1.90;;;13.60;30.90;;;;;;5003795;28;20485;-63
2023/08/08 03:00:51;;;;;;;4.23;1.50;;;13.60;30.70;;;;;;5003368;28;20491;-63
2023/08/08 03:03:17;;;;;;;5.70;1.70;;;13.60;30.80;;;;;;5002065;28;20464;-63
2023/08/08 03:05:45;;;;;;;6.20;1.60;;;13.60;30.70;;;;;;5009648;28;20463;-63
2023/08/08 03:08:13;;;;;;;6.27;1.93;;;13.70;30.70;;;;;;5008776;28;20490;-63
2023/08/08 03:10:40;;;;;;;4.07;1.60;;;13.60;30.60;;;;;;5001474;28;20464;-63
2023/08/08 03:13:07;;;;;;;4.13;1.33;;;13.60;30.70;;;;;;5008787;28;20510;-63
2023/08/08 03:15:35;;;;;;;6.67;2.30;;;13.70;30.60;;;;;;5008052;28;20456;-64
2023/08/08 03:18:01;;;;;;;4.40;1.70;;;13.60;30.50;;;;;;5002491;28;20996;-63
2023/08/08 03:20:28;;;;;;;4.67;2.13;;;13.70;30.60;;;;;;5004773;28;20991;-63
2023/08/08 03:22:55;;;;;;;4.23;1.40;;;13.70;30.70;;;;;;5004650;28;20459;-63
2023/08/08 03:25:23;;;;;;;4.60;1.60;;;13.70;30.70;;;;;;5004570;28;20994;-63
2023/08/08 03:27:50;;;;;;;5.13;1.43;;;13.60;30.60;;;;;;5004732;28;20484;-63
2023/08/08 03:30:16;;;;;;;4.20;1.30;;;13.60;30.50;;;;;;4999925;28;20461;-63
2023/08/08 03:32:42;;;;;;;4.10;1.50;;;13.70;30.60;;;;;;5004197;28;20474;-63
2023/08/08 03:35:10;;;;;;;4.80;1.70;;;13.60;30.40;;;;;;5006651;28;20459;-63
2023/08/08 03:37:36;;;;;;;4.80;1.90;;;13.60;30.50;;;;;;5001822;28;20248;-63
2023/08/08 03:40:04;;;;;;;4.00;1.60;;;13.70;30.50;;;;;;5003722;28;20463;-63
2023/08/08 03:42:32;;;;;;;4.10;1.40;;;13.60;30.50;;;;;;4998728;28;20464;-63
2023/08/08 03:44:58;;;;;;;3.60;1.50;;;13.60;30.50;;;;;;5004574;28;20476;-63
2023/08/08 03:47:26;;;;;;;4.20;1.60;;;13.60;30.50;;;;;;5006831;28;21007;-63
2023/08/08 03:49:55;;;;;;;4.37;1.53;;;13.60;30.40;;;;;;5008053;28;20468;-63
2023/08/08 03:52:21;;;;;;;5.73;1.60;;;13.60;30.40;;;;;;5000487;28;20497;-63
2023/08/08 03:54:48;;;;;;;4.80;1.40;;;13.60;30.30;;;;;;4998076;28;21059;-63
2023/08/08 03:57:15;;;;;;;4.50;1.67;;;13.50;30.40;;;;;;4996327;28;20506;-63
2023/08/08 03:59:43;;;;;;;3.80;1.70;;;13.50;30.40;;;;;;5002996;28;20467;-63
2023/08/08 04:02:10;;;;;;;5.67;1.47;;;13.50;30.50;;;;;;5001001;28;20480;-63
2023/08/08 04:04:38;;;;;;;3.73;1.30;;;13.40;30.50;;;;;;5002634;28;20462;-63
2023/08/08 04:07:05;;;;;;;4.23;1.50;;;13.40;30.60;;;;;;5007529;28;20492;-63
2023/08/08 04:09:32;;;;;;;5.33;1.90;;;13.40;30.70;;;;;;5008381;28;20460;-63
2023/08/08 04:11:58;;;;;;;5.10;2.00;;;13.30;30.80;;;;;;5005572;28;20463;-63
2023/08/08 04:14:25;;;;;;;4.20;1.57;;;13.30;30.80;;;;;;5004538;28;20460;-63
2023/08/08 04:16:53;;;;;;;4.63;1.70;;;13.30;30.80;;;;;;5003640;28;20546;-63
2023/08/08 04:19:20;;;;;;;4.37;1.60;;;13.30;30.90;;;;;;5004423;28;22314;-63
2023/08/08 04:21:47;;;;;;;5.93;1.90;;;13.20;30.90;;;;;;5006861;28;20459;-63
2023/08/08 04:24:13;;;;;;;4.33;1.83;;;13.20;30.90;;;;;;5016681;23;20500;-64
2023/08/08 04:26:40;;;;;;;5.00;1.60;;;13.20;31.00;;;;;;5004280;28;20461;-64
2023/08/08 04:29:07;;;;;;;5.40;1.60;;;13.20;31.00;;;;;;5004248;28;20502;-64
2023/08/08 04:31:33;;;;;;;4.10;1.90;;;13.30;31.00;;;;;;5008169;28;20495;-64
2023/08/08 04:34:02;;;;;;;3.97;1.70;;;13.30;31.00;;;;;;5003851;28;20466;-64
2023/08/08 04:36:29;;;;;;;4.60;1.53;;;13.30;30.90;;;;;;5003538;28;20459;-64
2023/08/08 04:38:56;;;;;;;4.03;1.63;;;13.30;30.70;;;;;;5007277;28;20480;-64
2023/08/08 04:41:23;;;;;;;4.03;1.43;;;13.30;30.70;;;;;;5003920;28;20495;-64
2023/08/08 04:43:49;;;;;;;4.50;1.83;;;13.40;30.60;;;;;;5007632;28;20472;-65
2023/08/08 04:46:16;;;;;;;4.37;1.53;;;13.40;30.50;;;;;;5011366;28;20494;-64
2023/08/08 04:48:43;;;;;;;4.10;1.47;;;13.50;30.40;;;;;;4996711;23;20494;-64
2023/08/08 04:51:11;;;;;;;4.73;1.30;;;13.50;30.40;;;;;;4985449;28;20487;-64
2023/08/08 04:53:38;;;;;;;3.93;1.67;;;13.60;29.70;;;;;;4982789;28;20461;-64
2023/08/08 04:56:04;;;;;;;5.17;1.40;;;13.70;29.50;;;;;;4985010;28;20487;-64
2023/08/08 04:58:31;;;;;;;4.83;1.60;;;13.70;29.20;;;;;;4987374;28;20478;-64
2023/08/08 05:00:58;;;;;;;5.33;1.80;;;13.80;29.00;;;;;;4985104;28;20475;-64
2023/08/08 05:03:25;;;;;;;3.57;1.40;;;13.80;28.90;;;;;;4987381;28;20858;-64
2023/08/08 05:05:52;;;;;;;4.63;1.53;;;13.90;28.90;;;;;;4987371;28;20460;-64
2023/08/08 05:08:20;;;;;;;4.73;1.83;;;14.10;28.50;;;;;;4987976;28;20484;-64
2023/08/08 05:10:46;;;;;;;5.10;1.97;;;14.40;28.00;;;;;;4987501;28;20472;-63
2023/08/08 05:13:14;;;;;;;5.83;1.43;;;14.60;27.20;;;;;;4987939;28;20961;-64
2023/08/08 05:15:40;;;;;;;3.77;1.10;;;15.10;26.10;;;;;;4990086;28;20480;-64
2023/08/08 05:18:07;;;;;;;6.40;1.77;;;15.50;24.20;;;;;;4988192;28;20479;-65
2023/08/08 05:20:34;;;;;;;3.70;1.30;;;15.90;23.30;;;;;;4988455;28;20457;-64
2023/08/08 05:23:00;;;;;;;5.23;1.70;;;16.30;20.30;;;;;;4990041;28;20473;-63
2023/08/08 05:25:28;;;;;;;4.87;1.40;;;16.10;20.30;;;;;;4989498;28;23088;-64
2023/08/08 05:27:55;;;;;;;3.57;1.30;;;15.90;20.60;;;;;;4989744;28;20491;-64
2023/08/08 05:30:22;;;;;;;4.10;1.50;;;15.80;21.10;;;;;;4990523;28;20465;-64
2023/08/08 05:32:49;;;;;;;4.63;1.73;;;15.70;21.70;;;;;;4991402;28;20452;-64
2023/08/08 05:35:16;;;;;;;3.80;1.53;;;15.60;21.70;;;;;;4989946;28;20468;-64
2023/08/08 05:37:43;;;;;;;4.00;1.40;;;15.50;22.00;;;;;;4991927;28;20472;-64
2023/08/08 05:40:10;;;;;;;4.30;1.77;;;15.40;22.20;;;;;;4991773;28;20461;-64
2023/08/08 05:42:38;;;;;;;3.90;1.50;;;15.40;22.20;;;;;;4988504;28;20464;-64
2023/08/08 05:45:06;;;;;;;4.23;1.43;;;15.40;22.50;;;;;;4990305;28;20460;-64
2023/08/08 05:47:33;;;;;;;5.07;1.60;;;15.40;22.30;;;;;;4988837;28;20476;-63
2023/08/08 05:50:00;;;;;;;4.90;1.67;;;15.50;22.20;;;;;;4992029;28;20452;-63
2023/08/08 05:52:27;;;;;;;4.50;1.40;;;15.60;21.80;;;;;;4990074;28;21017;-62
2023/08/08 05:54:53;;;;;;;4.33;1.30;;;15.70;21.60;;;;;;4990858;28;20461;-65
2023/08/08 05:57:21;;;;;;;5.57;1.30;;;16.10;20.70;;;;;;4990553;28;20488;-64
2023/08/08 05:59:50;;;;;;;3.90;1.30;;;17.40;19.10;;;;;;4990902;28;20460;-65
2023/08/08 06:02:16;;;;;;;4.47;1.67;;;18.00;16.40;;;;;;4989909;28;20523;-64
2023/08/08 06:04:43;;;;;;;3.97;1.50;;;19.60;14.90;;;;;;4989257;28;20539;-64
2023/08/08 06:07:10;;;;;;;4.27;1.37;;;21.80;10.30;;;;;;4991373;28;20488;-63
2023/08/08 06:09:37;;;;;;;4.70;1.27;;;24.40;4.30;;;;;;4987674;28;20478;-65
2023/08/08 06:12:05;;;;;;;4.73;1.40;;;26.60;1.00;;;;;;4990935;28;20522;-64
2023/08/08 06:14:32;;;;;;;3.50;1.10;;;28.40;1.00;;;;;;4986514;28;20465;-64
2023/08/08 06:17:00;;;;;;;3.67;1.43;;;29.00;1.00;;;;;;4986439;28;20489;-64
2023/08/08 06:19:26;;;;;;;4.30;1.53;;;29.20;1.00;;;;;;4988781;28;20953;-64
2023/08/08 06:21:53;;;;;;;5.10;1.10;;;29.50;1.00;;;;;;4989150;28;20465;-64
2023/08/08 06:24:20;;;;;;;3.70;1.20;;;30.70;1.00;;;;;;4990136;28;20463;-65
2023/08/08 06:26:47;;;;;;;4.17;1.20;;;32.10;1.00;;;;;;4994737;28;20460;-64
2023/08/08 06:29:14;;;;;;;3.77;1.10;;;33.20;1.00;;;;;;4993815;28;20483;-64
2023/08/08 06:31:41;;;;;;;3.30;1.07;;;33.70;1.00;;;;;;4988691;28;20468;-65
2023/08/08 06:34:09;;;;;;;3.23;0.93;;;34.10;1.00;;;;;;4990408;28;20460;-65
2023/08/08 06:36:36;;;;;;;4.93;1.20;;;34.40;1.00;;;;;;4989083;28;20465;-64
2023/08/08 06:39:02;;;;;;;3.30;1.00;;;34.60;1.00;;;;;;4984602;28;20480;-65
2023/08/08 06:41:29;;;;;;;3.07;0.90;;;35.50;1.00;;;;;;4988252;28;20495;-65
2023/08/08 06:43:56;;;;;;;3.60;0.93;;;36.40;1.00;;;;;;4988115;28;20453;-65
2023/08/08 06:46:24;;;;;;;3.30;1.03;;;36.90;1.00;;;;;;4983457;28;20457;-66
2023/08/08 06:48:52;;;;;;;3.57;1.07;;;37.60;1.00;;;;;;4992589;28;21088;-65
2023/08/08 06:51:20;;;;;;;3.40;1.20;;;38.50;1.00;;;;;;4992313;28;20456;-65
2023/08/08 06:53:47;;;;;;;4.60;0.97;;;38.80;1.00;;;;;;4987609;28;20464;-65
2023/08/08 06:56:14;;;;;;;3.10;0.87;;;39.30;1.00;;;;;;4991198;28;20464;-65
2023/08/08 06:58:40;;;;;;;3.20;1.10;;;39.90;1.00;;;;;;4989758;28;20499;-65
2023/08/08 07:01:07;;;;;;;7.53;1.27;;;40.50;1.00;;;;;;4990977;28;20468;-66
2023/08/08 07:03:34;;;;;;;3.67;1.20;;;40.80;1.00;;;;;;4988030;28;21004;-66
2023/08/08 07:06:01;;;;;;;3.33;1.10;;;41.30;1.00;;;;;;4989630;28;20472;-64
2023/08/08 07:08:29;;;;;;;4.03;1.07;;;41.90;1.00;;;;;;4986432;28;21031;-64
2023/08/08 07:10:55;;;;;;;3.80;0.80;;;42.10;1.00;;;;;;4989158;28;20465;-65
2023/08/08 07:13:22;;;;;;;3.70;1.17;;;42.40;1.00;;;;;;4991156;28;20463;-65
2023/08/08 07:15:49;;;;;;;4.30;1.33;;;42.70;1.00;;;;;;4989009;28;21280;-64
2023/08/08 07:18:16;;;;;;;3.07;1.00;;;43.30;1.00;;;;;;4990049;28;20504;-65
2023/08/08 07:20:43;;;;;;;3.07;1.00;;;43.70;1.00;;;;;;4986534;28;20469;-65
2023/08/08 07:23:09;;;;;;;3.97;1.07;;;43.40;1.00;;;;;;4987396;28;20465;-66
2023/08/08 07:25:37;;;;;;;2.97;1.00;;;43.20;1.00;;;;;;4987973;28;20464;-65
2023/08/08 07:28:05;;;;;;;3.47;1.37;;;43.40;1.00;;;;;;4987355;28;20480;-65
2023/08/08 07:30:31;;;;;;;3.33;1.30;;;43.20;1.00;;;;;;4986176;28;20465;-65
2023/08/08 07:32:58;;;;;;;3.80;1.10;;;42.90;1.00;;;;;;4989964;28;20476;-65
2023/08/08 07:35:25;;;;;;;3.83;1.10;;;42.90;1.00;;;;;;4989732;28;20464;-66
2023/08/08 07:37:51;;;;;;;3.73;0.90;;;43.60;1.00;;;;;;4989789;28;20491;-65
2023/08/08 07:40:19;;;;;;;3.77;1.00;;;43.90;1.00;;;;;;4989234;28;20457;-66
2023/08/08 07:42:48;;;;;;;2.77;1.00;;;44.40;1.00;;;;;;4985995;28;20480;-66
2023/08/08 07:45:15;;;;;;;3.60;1.10;;;45.30;1.00;;;;;;4985922;28;20454;-65
2023/08/08 07:47:42;;;;;;;9.03;1.23;;;45.70;1.00;;;;;;4983445;28;20488;-66
2023/08/08 07:50:09;;;;;;;3.10;0.97;;;45.40;1.00;;;;;;4986364;28;20828;-66
2023/08/08 07:52:36;;;;;;;4.20;1.33;;;45.20;1.00;;;;;;4988908;28;20457;-65
2023/08/08 07:55:03;;;;;;;2.90;1.00;;;45.10;1.00;;;;;;4988970;28;20464;-65
2023/08/08 07:57:31;;;;;;;3.33;1.00;;;45.40;1.00;;;;;;4987536;28;20495;-65
2023/08/08 08:00:01;;;;;;;3.57;1.10;;;45.80;1.00;;;;;;4989916;28;20465;-65
2023/08/08 08:02:27;;;;;;;4.10;0.97;;;46.50;1.00;;;;;;4987984;28;21314;-65
2023/08/08 08:04:54;;;;;;;3.73;1.07;;;46.30;1.00;;;;;;4990412;28;20456;-65
2023/08/08 08:07:21;;;;;;;3.20;0.97;;;45.90;1.00;;;;;;4989095;28;20484;-65
2023/08/08 08:09:47;;;;;;;3.13;1.20;;;46.20;1.00;;;;;;4987942;28;20993;-65
2023/08/08 08:12:14;;;;;;;3.07;1.10;;;46.50;1.00;;;;;;4985196;28;20473;-65
2023/08/08 08:14:41;;;;;;;3.47;0.97;;;46.60;1.00;;;;;;4988511;28;20457;-65
2023/08/08 08:17:09;;;;;;;3.00;0.90;;;46.80;1.00;;;;;;4988521;28;21229;-65
2023/08/08 08:19:36;;;;;;;3.30;1.10;;;47.30;1.00;;;;;;4987380;28;20453;-65
2023/08/08 08:22:04;;;;;;;3.90;1.03;;;47.80;1.00;;;;;;4983394;28;20869;-65
2023/08/08 08:24:31;;;;;;;3.60;1.23;;;48.60;1.00;;;;;;4986163;28;20470;-65
2023/08/08 08:26:58;;;;;;;2.97;1.00;;;49.20;1.00;;;;;;4988225;28;20487;-65
2023/08/08 08:29:25;;;;;;;4.27;1.10;;;49.70;1.00;;;;;;4988106;28;20841;-65
2023/08/08 08:31:51;;;;;;;3.57;1.20;;;50.20;1.00;;;;;;4983727;28;20472;-65
2023/08/08 08:34:19;;;;;;;3.20;1.23;;;50.50;1.00;;;;;;4989560;28;20468;-65
2023/08/08 08:36:46;;;;;;;2.97;1.00;;;50.60;1.00;;;;;;4988195;28;20469;-65
2023/08/08 08:39:13;;;;;;;3.73;1.10;;;50.60;1.00;;;;;;4989404;28;20457;-65
2023/08/08 08:41:40;;;;;;;3.73;1.50;;;50.70;1.00;;;;;;4992205;28;20552;-66
2023/08/08 08:44:07;;;;;;;3.33;1.20;;;50.60;1.00;;;;;;4998566;28;20476;-65
2023/08/08 08:46:36;;;;;;;3.23;1.00;;;50.10;1.00;;;;;;4987705;28;20468;-66
2023/08/08 08:49:07;;;;;;;4.53;1.43;;;49.50;1.00;;;;;;4987887;28;20495;-66
2023/08/08 08:51:36;;;;;;;3.40;1.30;;;49.20;1.00;;;;;;4994349;28;20464;-66
2023/08/08 08:54:03;;;;;;;3.97;1.40;;;49.30;1.00;;;;;;4992754;28;20463;-64
2023/08/08 08:56:32;;;;;;;3.07;1.13;;;48.50;1.00;;;;;;4993787;28;20463;-65
2023/08/08 08:59:00;;;;;;;3.53;0.93;;;47.60;1.00;;;;;;4994327;28;20472;-66
2023/08/08 09:01:28;;;;;;;3.20;1.20;;;46.70;1.00;;;;;;4994490;28;20504;-65
2023/08/08 09:03:55;;;;;;;3.40;1.00;;;47.50;1.00;;;;;;4994158;28;20488;-66
2023/08/08 09:06:23;;;;;;;3.27;1.20;;;47.30;1.00;;;;;;4995515;28;20837;-66
2023/08/08 09:08:51;;;;;;;3.50;1.40;;;47.10;1.00;;;;;;4993138;28;20480;-66
2023/08/08 09:11:18;;;;;;;3.00;0.90;;;46.50;1.00;;;;;;4990224;28;20469;-66
2023/08/08 09:13:44;;;;;;;3.17;1.27;;;45.70;1.00;;;;;;4994029;28;20465;-66
2023/08/08 09:16:12;;;;;;;3.50;1.03;;;45.00;1.00;;;;;;4995342;28;20460;-66
2023/08/08 09:18:39;;;;;;;3.10;1.20;;;44.00;1.00;;;;;;4993827;28;20546;-66
2023/08/08 09:21:06;;;;;;;2.93;0.90;;;43.50;1.00;;;;;;4991603;28;20997;-65
2023/08/08 09:23:33;;;;;;;3.00;1.20;;;42.90;1.00;;;;;;4997546;28;20834;-65
2023/08/08 09:26:01;;;;;;;3.30;1.20;;;41.80;1.00;;;;;;4994329;28;20464;-65
2023/08/08 09:28:28;;;;;;;4.23;1.30;;;41.10;1.00;;;;;;4991506;28;20842;-65
2023/08/08 09:30:55;;;;;;;4.00;1.73;;;41.10;1.00;;;;;;4993211;28;20475;-65
2023/08/08 09:33:22;;;;;;;5.47;1.37;;;40.80;1.00;;;;;;5001876;28;20457;-65
2023/08/08 09:35:48;;;;;;;4.20;1.30;;;39.40;1.00;;;;;;4994790;28;20460;-65
2023/08/08 09:38:15;;;;;;;4.30;1.40;;;37.90;1.00;;;;;;5002016;28;20834;-65
2023/08/08 09:40:42;;;;;;;4.27;1.63;;;37.10;1.00;;;;;;4990625;28;20453;-65
2023/08/08 09:43:12;;;;;;;3.87;1.57;;;38.00;1.00;;;;;;4994105;28;20472;-65
2023/08/08 09:45:41;;;;;;;4.73;1.30;;;37.40;1.00;;;;;;4994480;28;20452;-64
2023/08/08 09:48:08;;;;;;;4.77;1.20;;;38.10;1.00;;;;;;4994780;28;21068;-64
2023/08/08 09:50:36;;;;;;;3.40;1.20;;;38.40;1.00;;;;;;4993571;28;20476;-65
2023/08/08 09:53:03;;;;;;;4.10;1.40;;;38.00;1.00;;;;;;4991711;28;20453;-64
2023/08/08 09:55:30;;;;;;;4.80;1.73;;;36.40;1.00;;;;;;4992479;28;20463;-64
2023/08/08 09:57:58;;;;;;;4.47;1.60;;;34.90;1.00;;;;;;4994558;28;20476;-65
2023/08/08 10:00:27;;;;;;;4.70;1.50;;;33.70;1.00;;;;;;4990461;28;20953;-65
2023/08/08 10:02:55;;;;;;;5.50;1.37;;;34.60;1.00;;;;;;4994439;28;20463;-65
2023/08/08 10:05:22;;;;;;;4.00;1.77;;;36.40;1.00;;;;;;4992014;28;20457;-65
2023/08/08 10:07:49;;;;;;;3.57;1.33;;;37.20;1.00;;;;;;4990583;28;20480;-65
2023/08/08 10:10:18;;;;;;;3.33;1.23;;;37.70;1.00;;;;;;4990364;28;20944;-65
2023/08/08 10:12:46;;;;;;;3.30;1.30;;;37.80;1.00;;;;;;4991161;28;20464;-65
2023/08/08 10:15:13;;;;;;;3.00;1.03;;;38.20;1.00;;;;;;4996877;28;20451;-65
2023/08/08 10:17:42;;;;;;;3.50;1.10;;;37.00;1.00;;;;;;4991439;28;20484;-65
2023/08/08 10:20:11;;;;;;;3.67;1.27;;;36.20;1.00;;;;;;4988028;28;20441;-65
2023/08/08 10:22:39;;;;;;;4.07;1.43;;;35.90;1.00;;;;;;4990561;28;20508;-65
2023/08/08 10:25:06;;;;;;;3.40;1.30;;;35.00;1.00;;;;;;4988594;28;20801;-65
2023/08/08 10:27:33;;;;;;;3.83;1.50;;;33.70;1.00;;;;;;4992308;28;20492;-65
2023/08/08 10:30:04;;;;;;;4.60;1.40;;;32.50;1.00;;;;;;4996891;28;20472;-65
2023/08/08 10:32:40;;;;;;;4.50;1.77;;;31.40;1.00;;;;;;4992860;28;20472;-65
2023/08/08 10:35:08;;;;;;;4.13;1.37;;;30.50;1.00;;;;;;4985210;28;20453;-64
2023/08/08 10:37:34;;;;;;;4.70;1.80;;;30.10;1.00;;;;;;4990344;28;20513;-65
2023/08/08 10:40:05;;;;;;;4.53;1.40;;;29.80;1.00;;;;;;4990626;28;20453;-65
2023/08/08 10:42:32;;;;;;;6.33;1.63;;;29.60;1.00;;;;;;4989497;28;20488;-64
2023/08/08 10:45:00;;;;;;;3.47;1.30;;;29.40;1.00;;;;;;4986047;28;20468;-64
2023/08/08 10:47:32;;;;;;;4.00;1.50;;;29.10;1.00;;;;;;4989362;28;20844;-65
2023/08/08 10:50:04;;;;;;;4.07;1.27;;;28.80;1.00;;;;;;4988589;28;20520;-65
2023/08/08 10:52:31;;;;;;;5.10;1.57;;;28.60;1.00;;;;;;4990714;28;20464;-64
2023/08/08 10:54:58;;;;;;;3.60;1.30;;;28.50;1.00;;;;;;5009240;22;20510;-63
2023/08/08 10:57:26;;;;;;;3.87;1.17;;;28.30;1.00;;;;;;5006953;28;20476;-64
2023/08/08 10:59:53;;;;;;;3.33;1.10;;;28.20;1.00;;;;;;5008121;28;20452;-63
2023/08/08 11:02:20;;;;;;;4.53;1.27;;;28.10;1.00;;;;;;5006247;28;20941;-64
2023/08/08 11:04:48;;;;;;;4.97;1.50;;;27.90;1.00;;;;;;5002287;28;20864;-64
2023/08/08 11:07:16;;;;;;;5.60;1.73;;;27.70;1.00;;;;;;5004702;28;20491;-63
2023/08/08 11:09:44;;;;;;;5.33;1.33;;;27.50;1.00;;;;;;5007489;28;20476;-62
2023/08/08 11:12:15;;;;;;;3.47;1.50;;;27.20;1.00;;;;;;5007496;28;20461;-62
2023/08/08 11:14:41;;;;;;;3.83;1.37;;;26.90;1.00;;;;;;5008032;28;20459;-62
2023/08/08 11:17:08;;;;;;;3.97;1.40;;;26.70;1.00;;;;;;5008906;28;20475;-62
2023/08/08 11:19:41;;;;;;;4.77;1.67;;;26.40;1.00;;;;;;5007973;28;20463;-63
2023/08/08 11:22:10;;;;;;;6.93;1.70;;;26.40;1.00;;;;;;5001810;28;20488;-63
2023/08/08 11:24:38;;;;;;;4.67;1.37;;;26.40;1.00;;;;;;5001873;28;20550;-64
2023/08/08 11:27:49;;;;;;;4.40;1.63;;;26.40;1.00;;;;;;4999726;28;20852;-63
2023/08/08 11:30:16;;;;;;;4.03;1.27;;;26.30;1.00;;;;;;5000673;28;20477;-63
2023/08/08 11:32:43;;;;;;;6.33;1.70;;;26.10;1.00;;;;;;5002446;28;20460;-64
2023/08/08 11:35:10;;;;;;;4.07;1.57;;;26.00;1.00;;;;;;5005879;28;20467;-64
2023/08/08 11:37:37;;;;;;;4.47;1.57;;;25.90;1.00;;;;;;5006298;28;20893;-64
2023/08/08 11:40:08;;;;;;;4.93;1.27;;;25.90;1.00;;;;;;5006567;28;20455;-64
2023/08/08 11:42:35;;;;;;;3.97;1.40;;;25.80;1.00;;;;;;5007857;28;20969;-64
2023/08/08 11:45:04;;;;;;;6.00;1.67;;;25.80;1.00;;;;;;5000735;28;20470;-64
2023/08/08 11:47:35;;;;;;;3.77;1.40;;;25.80;1.00;;;;;;5005165;28;20475;-64
2023/08/08 11:50:02;;;;;;;4.60;1.40;;;25.80;1.00;;;;;;5005710;28;20488;-64
2023/08/08 11:52:29;;;;;;;4.13;1.70;;;25.80;1.00;;;;;;5003010;28;20808;-64
2023/08/08 11:54:56;;;;;;;6.50;1.70;;;25.60;1.00;;;;;;5008508;28;20479;-63
2023/08/08 11:57:24;;;;;;;5.13;1.70;;;25.50;1.00;;;;;;5008095;28;20578;-63
2023/08/08 11:59:53;;;;;;;4.00;1.40;;;25.40;1.00;;;;;;5004473;28;21160;-63
2023/08/08 12:02:20;;;;;;;4.87;1.70;;;25.40;1.00;;;;;;5006930;28;20487;-64
2023/08/08 12:04:47;;;;;;;3.83;1.33;;;25.20;1.00;;;;;;5007364;28;20459;-64
2023/08/08 12:07:14;;;;;;;5.27;1.90;;;25.10;1.00;;;;;;4999954;28;20503;-64
2023/08/08 12:09:41;;;;;;;3.90;1.50;;;24.90;1.00;;;;;;5007479;28;20538;-63
2023/08/08 12:12:09;;;;;;;3.90;1.40;;;24.80;1.00;;;;;;5004425;28;20546;-64
2023/08/08 12:14:39;;;;;;;5.30;1.47;;;24.80;1.00;;;;;;5000115;28;20460;-63
2023/08/08 12:17:06;;;;;;;4.10;1.50;;;24.80;1.00;;;;;;5005836;28;20480;-64
2023/08/08 12:19:33;;;;;;;3.63;1.50;;;24.70;1.00;;;;;;5002601;28;20456;-65
2023/08/08 12:22:00;;;;;;;5.23;1.77;;;24.70;1.00;;;;;;5003389;28;20947;-64
2023/08/08 12:24:27;;;;;;;4.90;2.00;;;24.70;1.00;;;;;;5004219;28;20467;-63
2023/08/08 12:26:54;;;;;;;4.60;1.40;;;24.70;1.00;;;;;;5005993;28;20464;-62
2023/08/08 12:29:20;;;;;;;4.33;1.50;;;24.60;1.00;;;;;;5002484;28;20482;-63
2023/08/08 12:31:48;;;;;;;4.47;1.60;;;24.70;1.00;;;;;;5005511;28;20479;-64
2023/08/08 12:34:15;;;;;;;7.57;1.90;;;24.80;1.00;;;;;;5006773;28;20467;-63
2023/08/08 12:36:42;;;;;;;4.90;1.33;;;24.70;1.00;;;;;;5005802;28;20472;-63
2023/08/08 12:39:10;;;;;;;5.53;1.83;;;24.60;1.00;;;;;;5001884;28;20459;-63
2023/08/08 12:41:37;;;;;;;5.00;1.80;;;24.60;1.00;;;;;;5007322;28;20459;-63
2023/08/08 12:44:04;;;;;;;4.07;1.73;;;24.50;1.00;;;;;;5000994;28;20455;-63
2023/08/08 12:46:30;;;;;;;7.10;1.83;;;24.50;1.00;;;;;;5007607;28;20463;-63
2023/08/08 12:48:58;;;;;;;5.67;1.80;;;24.50;1.00;;;;;;5004090;28;21008;-64
2023/08/08 12:51:25;;;;;;;4.40;1.83;;;24.40;1.00;;;;;;5003449;28;20480;-63
2023/08/08 12:53:52;;;;;;;8.03;2.10;;;24.30;1.00;;;;;;5003516;28;20980;-63